Terminal Aerodrome Forecast
Issued by NWS

Home | Current Version | Previous Version | Text Only | Print | Product List | Glossary On
Versions: 1 2 3 4 5 6 7 8 9 10 11 12 13 14 15 16 17 18 19 20
000
FTUS46 KSGX 051129
TAFSNA
TAF
KSNA 051129Z 0512/0612 VRB04KT P6SM OVC013
     FM051800 VRB05KT P6SM SCT015
     FM052000 22009KT P6SM FEW020
     FM060200 VRB05KT P6SM SCT018
     FM060500 VRB04KT P6SM OVC015=

USA.gov is the U.S. government's official web portal to all federal, state and local government web resources and services.